sensor_id;sensor_type;location;lat;lon;timestamp;P1;durP1;ratioP1;P2;durP2;ratioP2
77520;SDS011;66633;47.628;19.158;2023-03-14T00:01:26;7.85;;;2.78;;
77520;SDS011;66633;47.628;19.158;2023-03-14T00:03:52;8.83;;;3.40;;
77520;SDS011;66633;47.628;19.158;2023-03-14T00:06:17;9.60;;;3.70;;
77520;SDS011;66633;47.628;19.158;2023-03-14T00:08:43;8.48;;;3.83;;
77520;SDS011;66633;47.628;19.158;2023-03-14T00:11:18;9.77;;;4.57;;
77520;SDS011;66633;47.628;19.158;2023-03-14T00:13:46;9.10;;;3.75;;
77520;SDS011;66633;47.628;19.158;2023-03-14T00:16:12;11.13;;;4.20;;
77520;SDS011;66633;47.628;19.158;2023-03-14T00:18:37;9.25;;;3.28;;
77520;SDS011;66633;47.628;19.158;2023-03-14T00:21:04;8.45;;;3.70;;
77520;SDS011;66633;47.628;19.158;2023-03-14T00:23:30;7.32;;;2.80;;
77520;SDS011;66633;47.628;19.158;2023-03-14T00:25:59;8.55;;;3.40;;
77520;SDS011;66633;47.628;19.158;2023-03-14T00:28:25;7.97;;;3.35;;
77520;SDS011;66633;47.628;19.158;2023-03-14T00:30:50;7.50;;;3.27;;
77520;SDS011;66633;47.628;19.158;2023-03-14T00:33:15;8.60;;;3.42;;
77520;SDS011;66633;47.628;19.158;2023-03-14T00:35:41;8.17;;;3.60;;
77520;SDS011;66633;47.628;19.158;2023-03-14T00:38:06;9.97;;;3.97;;
77520;SDS011;66633;47.628;19.158;2023-03-14T00:40:31;9.10;;;4.03;;
77520;SDS011;66633;47.628;19.158;2023-03-14T00:42:56;5.87;;;2.53;;
77520;SDS011;66633;47.628;19.158;2023-03-14T00:45:22;8.77;;;3.57;;
77520;SDS011;66633;47.628;19.158;2023-03-14T00:47:47;8.30;;;3.55;;
77520;SDS011;66633;47.628;19.158;2023-03-14T00:50:12;9.43;;;3.60;;
77520;SDS011;66633;47.628;19.158;2023-03-14T00:52:37;7.03;;;2.63;;
77520;SDS011;66633;47.628;19.158;2023-03-14T00:55:03;9.98;;;3.83;;
77520;SDS011;66633;47.628;19.158;2023-03-14T00:57:29;8.02;;;2.97;;
77520;SDS011;66633;47.628;19.158;2023-03-14T00:59:54;10.07;;;4.03;;
77520;SDS011;66633;47.628;19.158;2023-03-14T01:02:19;10.17;;;4.87;;
77520;SDS011;66633;47.628;19.158;2023-03-14T01:04:46;7.90;;;2.92;;
77520;SDS011;66633;47.628;19.158;2023-03-14T01:07:12;8.95;;;3.85;;
77520;SDS011;66633;47.628;19.158;2023-03-14T01:09:37;8.55;;;3.40;;
77520;SDS011;66633;47.628;19.158;2023-03-14T01:12:02;12.33;;;4.43;;
77520;SDS011;66633;47.628;19.158;2023-03-14T01:14:28;9.13;;;3.67;;
77520;SDS011;66633;47.628;19.158;2023-03-14T01:16:53;9.35;;;3.63;;
77520;SDS011;66633;47.628;19.158;2023-03-14T01:19:18;12.27;;;4.83;;
77520;SDS011;66633;47.628;19.158;2023-03-14T01:21:44;10.17;;;3.87;;
77520;SDS011;66633;47.628;19.158;2023-03-14T01:24:10;8.73;;;3.90;;
77520;SDS011;66633;47.628;19.158;2023-03-14T01:26:35;14.00;;;4.85;;
77520;SDS011;66633;47.628;19.158;2023-03-14T01:29:01;8.50;;;3.63;;
77520;SDS011;66633;47.628;19.158;2023-03-14T01:31:27;11.68;;;4.22;;
77520;SDS011;66633;47.628;19.158;2023-03-14T01:33:52;8.68;;;4.40;;
77520;SDS011;66633;47.628;19.158;2023-03-14T01:36:18;11.33;;;5.10;;
77520;SDS011;66633;47.628;19.158;2023-03-14T01:38:43;8.88;;;4.03;;
77520;SDS011;66633;47.628;19.158;2023-03-14T01:41:12;9.27;;;4.25;;
77520;SDS011;66633;47.628;19.158;2023-03-14T01:43:37;9.88;;;4.50;;
77520;SDS011;66633;47.628;19.158;2023-03-14T01:51:09;12.15;;;4.35;;
77520;SDS011;66633;47.628;19.158;2023-03-14T01:53:35;12.18;;;4.85;;
77520;SDS011;66633;47.628;19.158;2023-03-14T01:56:01;9.55;;;4.10;;
77520;SDS011;66633;47.628;19.158;2023-03-14T01:58:28;11.35;;;4.55;;
77520;SDS011;66633;47.628;19.158;2023-03-14T02:00:55;10.95;;;4.60;;
77520;SDS011;66633;47.628;19.158;2023-03-14T02:03:22;9.23;;;4.25;;
77520;SDS011;66633;47.628;19.158;2023-03-14T02:05:48;10.00;;;4.68;;
77520;SDS011;66633;47.628;19.158;2023-03-14T02:08:15;10.57;;;4.47;;
77520;SDS011;66633;47.628;19.158;2023-03-14T02:10:43;10.40;;;4.70;;
77520;SDS011;66633;47.628;19.158;2023-03-14T02:13:09;12.15;;;4.15;;
77520;SDS011;66633;47.628;19.158;2023-03-14T02:15:35;10.82;;;4.82;;
77520;SDS011;66633;47.628;19.158;2023-03-14T02:18:01;8.63;;;3.78;;
77520;SDS011;66633;47.628;19.158;2023-03-14T02:26:12;9.68;;;5.13;;
77520;SDS011;66633;47.628;19.158;2023-03-14T02:28:38;11.52;;;4.30;;
77520;SDS011;66633;47.628;19.158;2023-03-14T02:31:04;11.65;;;4.80;;
77520;SDS011;66633;47.628;19.158;2023-03-14T02:33:29;11.82;;;4.53;;
77520;SDS011;66633;47.628;19.158;2023-03-14T02:36:02;9.73;;;4.53;;
77520;SDS011;66633;47.628;19.158;2023-03-14T02:41:17;9.55;;;3.88;;
77520;SDS011;66633;47.628;19.158;2023-03-14T02:43:42;8.82;;;4.47;;
77520;SDS011;66633;47.628;19.158;2023-03-14T02:46:08;9.57;;;4.50;;
77520;SDS011;66633;47.628;19.158;2023-03-14T02:48:40;9.55;;;4.40;;
77520;SDS011;66633;47.628;19.158;2023-03-14T02:51:06;8.80;;;4.32;;
77520;SDS011;66633;47.628;19.158;2023-03-14T02:53:34;10.15;;;4.68;;
77520;SDS011;66633;47.628;19.158;2023-03-14T02:56:00;10.95;;;4.90;;
77520;SDS011;66633;47.628;19.158;2023-03-14T02:58:25;11.55;;;4.75;;
77520;SDS011;66633;47.628;19.158;2023-03-14T03:00:51;9.88;;;4.80;;
77520;SDS011;66633;47.628;19.158;2023-03-14T03:03:16;12.38;;;4.20;;
77520;SDS011;66633;47.628;19.158;2023-03-14T03:05:42;9.73;;;3.97;;
77520;SDS011;66633;47.628;19.158;2023-03-14T03:08:10;8.57;;;3.90;;
77520;SDS011;66633;47.628;19.158;2023-03-14T03:10:35;10.35;;;4.45;;
77520;SDS011;66633;47.628;19.158;2023-03-14T03:13:01;10.65;;;4.43;;
77520;SDS011;66633;47.628;19.158;2023-03-14T03:15:26;10.02;;;4.72;;
77520;SDS011;66633;47.628;19.158;2023-03-14T03:17:51;9.77;;;4.15;;
77520;SDS011;66633;47.628;19.158;2023-03-14T03:20:16;10.37;;;5.03;;
77520;SDS011;66633;47.628;19.158;2023-03-14T03:22:42;10.68;;;5.25;;
77520;SDS011;66633;47.628;19.158;2023-03-14T03:25:08;10.75;;;4.68;;
77520;SDS011;66633;47.628;19.158;2023-03-14T03:27:34;8.77;;;4.13;;
77520;SDS011;66633;47.628;19.158;2023-03-14T03:30:00;10.70;;;4.47;;
77520;SDS011;66633;47.628;19.158;2023-03-14T03:32:25;12.05;;;4.60;;
77520;SDS011;66633;47.628;19.158;2023-03-14T03:34:51;10.25;;;4.32;;
77520;SDS011;66633;47.628;19.158;2023-03-14T03:37:16;9.68;;;3.63;;
77520;SDS011;66633;47.628;19.158;2023-03-14T03:39:42;8.30;;;3.90;;
77520;SDS011;66633;47.628;19.158;2023-03-14T03:42:07;9.73;;;4.53;;
77520;SDS011;66633;47.628;19.158;2023-03-14T03:44:32;10.02;;;4.50;;
77520;SDS011;66633;47.628;19.158;2023-03-14T03:46:57;9.07;;;4.10;;
77520;SDS011;66633;47.628;19.158;2023-03-14T03:49:23;12.57;;;4.43;;
77520;SDS011;66633;47.628;19.158;2023-03-14T03:51:48;8.00;;;3.30;;
77520;SDS011;66633;47.628;19.158;2023-03-14T03:54:13;9.55;;;3.38;;
77520;SDS011;66633;47.628;19.158;2023-03-14T03:56:39;10.10;;;4.30;;
77520;SDS011;66633;47.628;19.158;2023-03-14T03:59:04;11.60;;;4.40;;
77520;SDS011;66633;47.628;19.158;2023-03-14T04:01:29;8.10;;;2.87;;
77520;SDS011;66633;47.628;19.158;2023-03-14T04:03:54;9.77;;;4.10;;
77520;SDS011;66633;47.628;19.158;2023-03-14T04:06:20;10.40;;;4.60;;
77520;SDS011;66633;47.628;19.158;2023-03-14T04:08:45;7.82;;;2.95;;
77520;SDS011;66633;47.628;19.158;2023-03-14T04:11:10;6.13;;;2.60;;
77520;SDS011;66633;47.628;19.158;2023-03-14T04:13:35;9.03;;;3.70;;
77520;SDS011;66633;47.628;19.158;2023-03-14T04:16:01;8.53;;;3.90;;
77520;SDS011;66633;47.628;19.158;2023-03-14T04:18:26;6.37;;;2.90;;
77520;SDS011;66633;47.628;19.158;2023-03-14T04:20:52;8.05;;;3.30;;
77520;SDS011;66633;47.628;19.158;2023-03-14T04:23:17;10.85;;;5.25;;
77520;SDS011;66633;47.628;19.158;2023-03-14T04:25:43;10.07;;;3.70;;
77520;SDS011;66633;47.628;19.158;2023-03-14T04:28:08;8.37;;;3.80;;
77520;SDS011;66633;47.628;19.158;2023-03-14T04:30:33;10.00;;;4.20;;
77520;SDS011;66633;47.628;19.158;2023-03-14T04:32:58;8.83;;;3.97;;
77520;SDS011;66633;47.628;19.158;2023-03-14T04:35:24;12.93;;;5.60;;
77520;SDS011;66633;47.628;19.158;2023-03-14T04:37:49;14.88;;;7.47;;
77520;SDS011;66633;47.628;19.158;2023-03-14T04:40:17;8.20;;;3.95;;
77520;SDS011;66633;47.628;19.158;2023-03-14T04:42:42;14.65;;;7.18;;
77520;SDS011;66633;47.628;19.158;2023-03-14T04:45:07;20.43;;;8.47;;
77520;SDS011;66633;47.628;19.158;2023-03-14T04:47:33;16.23;;;7.78;;
77520;SDS011;66633;47.628;19.158;2023-03-14T04:49:58;15.93;;;7.57;;
77520;SDS011;66633;47.628;19.158;2023-03-14T04:52:23;16.20;;;7.32;;
77520;SDS011;66633;47.628;19.158;2023-03-14T04:54:49;16.90;;;7.90;;
77520;SDS011;66633;47.628;19.158;2023-03-14T04:57:14;15.77;;;7.50;;
77520;SDS011;66633;47.628;19.158;2023-03-14T04:59:39;11.30;;;4.93;;
77520;SDS011;66633;47.628;19.158;2023-03-14T05:02:04;11.67;;;5.60;;
77520;SDS011;66633;47.628;19.158;2023-03-14T05:04:30;12.38;;;5.65;;
77520;SDS011;66633;47.628;19.158;2023-03-14T05:06:57;11.55;;;5.13;;
77520;SDS011;66633;47.628;19.158;2023-03-14T05:09:23;13.05;;;7.05;;
77520;SDS011;66633;47.628;19.158;2023-03-14T05:11:48;13.30;;;7.23;;
77520;SDS011;66633;47.628;19.158;2023-03-14T05:14:13;11.20;;;5.67;;
77520;SDS011;66633;47.628;19.158;2023-03-14T05:16:38;10.53;;;4.40;;
77520;SDS011;66633;47.628;19.158;2023-03-14T05:19:04;7.72;;;3.50;;
77520;SDS011;66633;47.628;19.158;2023-03-14T05:21:29;8.47;;;4.13;;
77520;SDS011;66633;47.628;19.158;2023-03-14T05:23:54;9.40;;;3.83;;
77520;SDS011;66633;47.628;19.158;2023-03-14T05:26:19;7.43;;;3.27;;
77520;SDS011;66633;47.628;19.158;2023-03-14T05:28:45;11.63;;;4.50;;
77520;SDS011;66633;47.628;19.158;2023-03-14T05:31:10;7.10;;;3.00;;
77520;SDS011;66633;47.628;19.158;2023-03-14T05:33:35;9.77;;;4.07;;
77520;SDS011;66633;47.628;19.158;2023-03-14T05:36:01;10.10;;;3.97;;
77520;SDS011;66633;47.628;19.158;2023-03-14T05:38:26;11.00;;;4.70;;
77520;SDS011;66633;47.628;19.158;2023-03-14T05:40:51;12.60;;;5.47;;
77520;SDS011;66633;47.628;19.158;2023-03-14T05:43:17;18.50;;;5.97;;
77520;SDS011;66633;47.628;19.158;2023-03-14T05:45:42;11.43;;;5.55;;
77520;SDS011;66633;47.628;19.158;2023-03-14T05:48:08;11.52;;;4.55;;
77520;SDS011;66633;47.628;19.158;2023-03-14T05:50:33;14.00;;;5.43;;
77520;SDS011;66633;47.628;19.158;2023-03-14T05:52:58;8.60;;;3.90;;
77520;SDS011;66633;47.628;19.158;2023-03-14T05:55:24;9.07;;;4.00;;
77520;SDS011;66633;47.628;19.158;2023-03-14T05:57:49;9.18;;;4.38;;
77520;SDS011;66633;47.628;19.158;2023-03-14T06:00:14;11.02;;;4.50;;
77520;SDS011;66633;47.628;19.158;2023-03-14T06:02:40;7.70;;;4.18;;
77520;SDS011;66633;47.628;19.158;2023-03-14T06:05:05;10.50;;;5.17;;
77520;SDS011;66633;47.628;19.158;2023-03-14T06:07:31;8.43;;;4.03;;
77520;SDS011;66633;47.628;19.158;2023-03-14T06:09:56;9.00;;;3.83;;
77520;SDS011;66633;47.628;19.158;2023-03-14T06:12:21;8.80;;;3.80;;
77520;SDS011;66633;47.628;19.158;2023-03-14T06:14:46;9.70;;;4.90;;
77520;SDS011;66633;47.628;19.158;2023-03-14T06:17:12;10.13;;;4.20;;
77520;SDS011;66633;47.628;19.158;2023-03-14T06:19:37;11.02;;;5.28;;
77520;SDS011;66633;47.628;19.158;2023-03-14T06:22:02;11.43;;;5.20;;
77520;SDS011;66633;47.628;19.158;2023-03-14T06:24:27;9.97;;;4.90;;
77520;SDS011;66633;47.628;19.158;2023-03-14T06:26:53;10.18;;;5.00;;
77520;SDS011;66633;47.628;19.158;2023-03-14T06:29:18;10.10;;;4.83;;
77520;SDS011;66633;47.628;19.158;2023-03-14T06:31:43;10.40;;;4.38;;
77520;SDS011;66633;47.628;19.158;2023-03-14T06:34:08;9.83;;;5.07;;
77520;SDS011;66633;47.628;19.158;2023-03-14T06:36:34;9.73;;;4.40;;
77520;SDS011;66633;47.628;19.158;2023-03-14T06:38:59;10.23;;;4.70;;
77520;SDS011;66633;47.628;19.158;2023-03-14T06:41:24;13.00;;;6.13;;
77520;SDS011;66633;47.628;19.158;2023-03-14T06:43:51;16.30;;;7.13;;
77520;SDS011;66633;47.628;19.158;2023-03-14T06:46:16;10.85;;;5.28;;
77520;SDS011;66633;47.628;19.158;2023-03-14T06:48:42;10.70;;;4.80;;
77520;SDS011;66633;47.628;19.158;2023-03-14T06:51:07;11.65;;;5.07;;
77520;SDS011;66633;47.628;19.158;2023-03-14T06:53:33;11.48;;;5.72;;
77520;SDS011;66633;47.628;19.158;2023-03-14T06:55:58;13.13;;;5.07;;
77520;SDS011;66633;47.628;19.158;2023-03-14T06:58:24;11.85;;;5.07;;
77520;SDS011;66633;47.628;19.158;2023-03-14T07:00:49;10.57;;;4.97;;
77520;SDS011;66633;47.628;19.158;2023-03-14T07:03:14;10.80;;;4.90;;
77520;SDS011;66633;47.628;19.158;2023-03-14T07:05:39;9.73;;;4.57;;
77520;SDS011;66633;47.628;19.158;2023-03-14T07:08:05;11.85;;;5.07;;
77520;SDS011;66633;47.628;19.158;2023-03-14T07:10:31;10.07;;;4.47;;
77520;SDS011;66633;47.628;19.158;2023-03-14T07:12:56;8.98;;;4.20;;
77520;SDS011;66633;47.628;19.158;2023-03-14T07:15:21;10.90;;;5.07;;
77520;SDS011;66633;47.628;19.158;2023-03-14T07:17:47;11.50;;;4.57;;
77520;SDS011;66633;47.628;19.158;2023-03-14T07:20:13;8.07;;;3.97;;
77520;SDS011;66633;47.628;19.158;2023-03-14T07:22:38;11.50;;;5.00;;
77520;SDS011;66633;47.628;19.158;2023-03-14T07:25:03;8.17;;;3.93;;
77520;SDS011;66633;47.628;19.158;2023-03-14T07:27:29;9.70;;;4.22;;
77520;SDS011;66633;47.628;19.158;2023-03-14T07:29:54;8.80;;;3.85;;
77520;SDS011;66633;47.628;19.158;2023-03-14T07:32:19;9.07;;;4.53;;
77520;SDS011;66633;47.628;19.158;2023-03-14T07:34:44;9.53;;;4.47;;
77520;SDS011;66633;47.628;19.158;2023-03-14T07:37:10;9.23;;;4.40;;
77520;SDS011;66633;47.628;19.158;2023-03-14T07:39:35;9.25;;;4.80;;
77520;SDS011;66633;47.628;19.158;2023-03-14T07:42:00;9.63;;;4.20;;
77520;SDS011;66633;47.628;19.158;2023-03-14T07:44:26;9.43;;;4.60;;
77520;SDS011;66633;47.628;19.158;2023-03-14T07:46:51;10.23;;;4.10;;
77520;SDS011;66633;47.628;19.158;2023-03-14T07:49:16;9.20;;;3.77;;
77520;SDS011;66633;47.628;19.158;2023-03-14T07:51:42;8.85;;;4.57;;
77520;SDS011;66633;47.628;19.158;2023-03-14T07:54:09;8.82;;;4.30;;
77520;SDS011;66633;47.628;19.158;2023-03-14T07:56:34;8.57;;;4.10;;
77520;SDS011;66633;47.628;19.158;2023-03-14T07:59:00;9.10;;;4.30;;
77520;SDS011;66633;47.628;19.158;2023-03-14T08:01:26;12.35;;;5.47;;
77520;SDS011;66633;47.628;19.158;2023-03-14T08:03:51;11.87;;;4.83;;
77520;SDS011;66633;47.628;19.158;2023-03-14T08:06:16;10.30;;;5.20;;
77520;SDS011;66633;47.628;19.158;2023-03-14T08:08:41;9.43;;;4.82;;
77520;SDS011;66633;47.628;19.158;2023-03-14T08:11:07;9.00;;;4.78;;
77520;SDS011;66633;47.628;19.158;2023-03-14T08:13:36;10.30;;;4.80;;
77520;SDS011;66633;47.628;19.158;2023-03-14T08:16:01;8.77;;;4.45;;
77520;SDS011;66633;47.628;19.158;2023-03-14T08:18:27;14.32;;;5.45;;
77520;SDS011;66633;47.628;19.158;2023-03-14T08:20:52;9.13;;;4.97;;
77520;SDS011;66633;47.628;19.158;2023-03-14T08:23:17;13.63;;;4.95;;
77520;SDS011;66633;47.628;19.158;2023-03-14T08:25:42;9.23;;;4.47;;
77520;SDS011;66633;47.628;19.158;2023-03-14T08:28:08;9.85;;;4.47;;
77520;SDS011;66633;47.628;19.158;2023-03-14T08:30:33;8.70;;;4.40;;
77520;SDS011;66633;47.628;19.158;2023-03-14T08:32:58;9.70;;;4.28;;
77520;SDS011;66633;47.628;19.158;2023-03-14T08:35:24;9.50;;;4.60;;
77520;SDS011;66633;47.628;19.158;2023-03-14T08:37:50;9.93;;;4.60;;
77520;SDS011;66633;47.628;19.158;2023-03-14T08:40:17;12.52;;;4.93;;
77520;SDS011;66633;47.628;19.158;2023-03-14T08:42:42;10.43;;;4.20;;
77520;SDS011;66633;47.628;19.158;2023-03-14T08:45:08;9.82;;;4.63;;
77520;SDS011;66633;47.628;19.158;2023-03-14T08:47:35;9.00;;;4.25;;
77520;SDS011;66633;47.628;19.158;2023-03-14T08:50:00;10.40;;;4.90;;
77520;SDS011;66633;47.628;19.158;2023-03-14T08:52:26;8.93;;;4.37;;
77520;SDS011;66633;47.628;19.158;2023-03-14T08:54:51;11.07;;;4.30;;
77520;SDS011;66633;47.628;19.158;2023-03-14T08:57:16;10.50;;;4.80;;
77520;SDS011;66633;47.628;19.158;2023-03-14T08:59:41;8.93;;;3.97;;
77520;SDS011;66633;47.628;19.158;2023-03-14T09:02:09;11.60;;;4.40;;
77520;SDS011;66633;47.628;19.158;2023-03-14T09:04:34;8.65;;;4.03;;
77520;SDS011;66633;47.628;19.158;2023-03-14T09:06:59;8.83;;;4.17;;
77520;SDS011;66633;47.628;19.158;2023-03-14T09:09:25;8.53;;;4.40;;
77520;SDS011;66633;47.628;19.158;2023-03-14T09:11:52;10.43;;;3.85;;
77520;SDS011;66633;47.628;19.158;2023-03-14T09:14:17;7.75;;;3.47;;
77520;SDS011;66633;47.628;19.158;2023-03-14T09:16:42;9.80;;;4.07;;
77520;SDS011;66633;47.628;19.158;2023-03-14T09:19:07;11.30;;;3.80;;
77520;SDS011;66633;47.628;19.158;2023-03-14T09:21:33;9.17;;;3.40;;
77520;SDS011;66633;47.628;19.158;2023-03-14T09:23:58;9.13;;;3.73;;
77520;SDS011;66633;47.628;19.158;2023-03-14T09:26:23;10.73;;;3.57;;
77520;SDS011;66633;47.628;19.158;2023-03-14T09:28:49;9.90;;;3.70;;
77520;SDS011;66633;47.628;19.158;2023-03-14T09:31:14;11.20;;;4.10;;
77520;SDS011;66633;47.628;19.158;2023-03-14T09:33:39;7.90;;;3.63;;
77520;SDS011;66633;47.628;19.158;2023-03-14T09:36:05;9.45;;;3.85;;
77520;SDS011;66633;47.628;19.158;2023-03-14T09:38:30;8.40;;;3.58;;
77520;SDS011;66633;47.628;19.158;2023-03-14T09:40:58;8.85;;;3.50;;
77520;SDS011;66633;47.628;19.158;2023-03-14T09:43:23;8.05;;;3.63;;
77520;SDS011;66633;47.628;19.158;2023-03-14T09:45:49;8.70;;;3.58;;
77520;SDS011;66633;47.628;19.158;2023-03-14T09:48:22;10.07;;;3.50;;
77520;SDS011;66633;47.628;19.158;2023-03-14T09:50:50;7.20;;;3.75;;
77520;SDS011;66633;47.628;19.158;2023-03-14T09:53:18;8.10;;;3.33;;
77520;SDS011;66633;47.628;19.158;2023-03-14T09:55:45;8.32;;;3.28;;
77520;SDS011;66633;47.628;19.158;2023-03-14T09:58:12;10.50;;;3.30;;
77520;SDS011;66633;47.628;19.158;2023-03-14T10:00:38;7.78;;;3.50;;
77520;SDS011;66633;47.628;19.158;2023-03-14T10:05:38;7.40;;;3.58;;
77520;SDS011;66633;47.628;19.158;2023-03-14T10:08:03;8.07;;;3.30;;
77520;SDS011;66633;47.628;19.158;2023-03-14T10:10:29;11.18;;;3.30;;
77520;SDS011;66633;47.628;19.158;2023-03-14T10:13:05;10.50;;;3.50;;
77520;SDS011;66633;47.628;19.158;2023-03-14T10:15:36;8.32;;;3.05;;
77520;SDS011;66633;47.628;19.158;2023-03-14T10:18:02;7.68;;;3.13;;
77520;SDS011;66633;47.628;19.158;2023-03-14T10:20:30;7.93;;;3.42;;
77520;SDS011;66633;47.628;19.158;2023-03-14T10:22:59;8.85;;;3.97;;
77520;SDS011;66633;47.628;19.158;2023-03-14T10:25:29;8.05;;;3.90;;
77520;SDS011;66633;47.628;19.158;2023-03-14T10:27:54;13.65;;;3.72;;
77520;SDS011;66633;47.628;19.158;2023-03-14T10:30:27;8.63;;;3.75;;
77520;SDS011;66633;47.628;19.158;2023-03-14T10:32:54;9.73;;;3.20;;
77520;SDS011;66633;47.628;19.158;2023-03-14T10:35:21;9.00;;;3.63;;
77520;SDS011;66633;47.628;19.158;2023-03-14T10:37:48;9.10;;;3.53;;
77520;SDS011;66633;47.628;19.158;2023-03-14T10:40:13;9.25;;;3.92;;
77520;SDS011;66633;47.628;19.158;2023-03-14T10:42:39;9.80;;;4.00;;
77520;SDS011;66633;47.628;19.158;2023-03-14T10:45:29;9.98;;;3.22;;
77520;SDS011;66633;47.628;19.158;2023-03-14T10:47:52;8.35;;;2.78;;
77520;SDS011;66633;47.628;19.158;2023-03-14T10:52:48;10.57;;;3.10;;
77520;SDS011;66633;47.628;19.158;2023-03-14T10:55:14;5.35;;;2.15;;
77520;SDS011;66633;47.628;19.158;2023-03-14T10:57:40;5.72;;;2.28;;
77520;SDS011;66633;47.628;19.158;2023-03-14T11:00:05;4.20;;;1.60;;
77520;SDS011;66633;47.628;19.158;2023-03-14T11:08:18;5.63;;;1.30;;
77520;SDS011;66633;47.628;19.158;2023-03-14T11:10:46;7.53;;;1.60;;
77520;SDS011;66633;47.628;19.158;2023-03-14T11:13:15;5.80;;;1.60;;
77520;SDS011;66633;47.628;19.158;2023-03-14T11:18:58;5.20;;;1.50;;
77520;SDS011;66633;47.628;19.158;2023-03-14T11:27:26;5.70;;;1.80;;
77520;SDS011;66633;47.628;19.158;2023-03-14T11:32:01;3.83;;;1.65;;
77520;SDS011;66633;47.628;19.158;2023-03-14T11:39:29;5.65;;;1.52;;
77520;SDS011;66633;47.628;19.158;2023-03-14T11:41:59;4.93;;;1.67;;
77520;SDS011;66633;47.628;19.158;2023-03-14T11:46:56;5.68;;;1.90;;
77520;SDS011;66633;47.628;19.158;2023-03-14T11:49:36;8.05;;;1.80;;
77520;SDS011;66633;47.628;19.158;2023-03-14T11:52:15;3.95;;;1.40;;
77520;SDS011;66633;47.628;19.158;2023-03-14T11:57:26;4.07;;;1.50;;
77520;SDS011;66633;47.628;19.158;2023-03-14T12:07:23;5.80;;;1.33;;
77520;SDS011;66633;47.628;19.158;2023-03-14T12:09:53;3.42;;;1.20;;
77520;SDS011;66633;47.628;19.158;2023-03-14T12:12:20;4.50;;;1.40;;
77520;SDS011;66633;47.628;19.158;2023-03-14T12:14:52;3.38;;;1.30;;
77520;SDS011;66633;47.628;19.158;2023-03-14T12:17:22;4.18;;;1.40;;
77520;SDS011;66633;47.628;19.158;2023-03-14T12:22:35;4.50;;;1.30;;
77520;SDS011;66633;47.628;19.158;2023-03-14T12:25:13;6.00;;;1.70;;
77520;SDS011;66633;47.628;19.158;2023-03-14T12:30:24;4.60;;;1.42;;
77520;SDS011;66633;47.628;19.158;2023-03-14T12:33:11;3.17;;;1.20;;
77520;SDS011;66633;47.628;19.158;2023-03-14T12:38:03;7.53;;;1.30;;
77520;SDS011;66633;47.628;19.158;2023-03-14T12:40:31;5.97;;;1.33;;
77520;SDS011;66633;47.628;19.158;2023-03-14T12:42:59;6.25;;;1.60;;
77520;SDS011;66633;47.628;19.158;2023-03-14T12:45:28;4.13;;;1.30;;
77520;SDS011;66633;47.628;19.158;2023-03-14T12:50:54;4.30;;;1.40;;
77520;SDS011;66633;47.628;19.158;2023-03-14T12:55:46;5.17;;;1.67;;
77520;SDS011;66633;47.628;19.158;2023-03-14T12:58:29;5.53;;;1.45;;
77520;SDS011;66633;47.628;19.158;2023-03-14T13:00:58;4.70;;;1.50;;
77520;SDS011;66633;47.628;19.158;2023-03-14T13:03:25;5.50;;;1.95;;
77520;SDS011;66633;47.628;19.158;2023-03-14T13:06:00;4.43;;;1.45;;
77520;SDS011;66633;47.628;19.158;2023-03-14T13:08:34;4.03;;;1.30;;
77520;SDS011;66633;47.628;19.158;2023-03-14T13:11:01;3.20;;;1.20;;
77520;SDS011;66633;47.628;19.158;2023-03-14T13:13:26;5.18;;;1.30;;
77520;SDS011;66633;47.628;19.158;2023-03-14T13:15:56;4.88;;;1.42;;
77520;SDS011;66633;47.628;19.158;2023-03-14T13:20:54;3.22;;;1.30;;
77520;SDS011;66633;47.628;19.158;2023-03-14T13:23:24;5.38;;;1.40;;
77520;SDS011;66633;47.628;19.158;2023-03-14T13:25:49;6.22;;;1.52;;
77520;SDS011;66633;47.628;19.158;2023-03-14T13:28:15;4.40;;;1.33;;
77520;SDS011;66633;47.628;19.158;2023-03-14T13:30:41;5.38;;;1.50;;
77520;SDS011;66633;47.628;19.158;2023-03-14T13:33:11;4.38;;;1.33;;
77520;SDS011;66633;47.628;19.158;2023-03-14T13:35:45;5.72;;;1.20;;
77520;SDS011;66633;47.628;19.158;2023-03-14T13:38:21;7.20;;;1.60;;
77520;SDS011;66633;47.628;19.158;2023-03-14T13:40:47;6.15;;;1.65;;
77520;SDS011;66633;47.628;19.158;2023-03-14T13:45:43;4.70;;;1.47;;
77520;SDS011;66633;47.628;19.158;2023-03-14T13:48:09;5.15;;;1.85;;
77520;SDS011;66633;47.628;19.158;2023-03-14T13:50:35;4.90;;;1.67;;
77520;SDS011;66633;47.628;19.158;2023-03-14T13:53:00;4.40;;;1.40;;
77520;SDS011;66633;47.628;19.158;2023-03-14T13:55:25;5.05;;;1.58;;
77520;SDS011;66633;47.628;19.158;2023-03-14T13:57:52;5.20;;;1.70;;
77520;SDS011;66633;47.628;19.158;2023-03-14T14:02:45;7.43;;;1.93;;
77520;SDS011;66633;47.628;19.158;2023-03-14T14:05:11;5.55;;;1.70;;
77520;SDS011;66633;47.628;19.158;2023-03-14T14:07:37;6.18;;;2.00;;
77520;SDS011;66633;47.628;19.158;2023-03-14T14:10:03;5.38;;;1.77;;
77520;SDS011;66633;47.628;19.158;2023-03-14T14:12:33;4.53;;;1.77;;
77520;SDS011;66633;47.628;19.158;2023-03-14T14:15:14;6.47;;;1.63;;
77520;SDS011;66633;47.628;19.158;2023-03-14T14:17:43;5.25;;;1.40;;
77520;SDS011;66633;47.628;19.158;2023-03-14T14:20:51;4.15;;;1.40;;
77520;SDS011;66633;47.628;19.158;2023-03-14T14:23:00;4.90;;;1.60;;
77520;SDS011;66633;47.628;19.158;2023-03-14T14:25:26;4.25;;;1.30;;
77520;SDS011;66633;47.628;19.158;2023-03-14T14:27:53;4.78;;;1.50;;
77520;SDS011;66633;47.628;19.158;2023-03-14T14:32:44;4.90;;;1.50;;
77520;SDS011;66633;47.628;19.158;2023-03-14T14:38:12;4.65;;;1.48;;
77520;SDS011;66633;47.628;19.158;2023-03-14T14:40:42;5.32;;;1.85;;
77520;SDS011;66633;47.628;19.158;2023-03-14T14:43:10;5.03;;;1.70;;
77520;SDS011;66633;47.628;19.158;2023-03-14T14:45:36;6.28;;;2.33;;
77520;SDS011;66633;47.628;19.158;2023-03-14T14:52:59;5.00;;;1.50;;
77520;SDS011;66633;47.628;19.158;2023-03-14T14:55:29;4.53;;;1.65;;
77520;SDS011;66633;47.628;19.158;2023-03-14T14:57:54;5.18;;;1.30;;
77520;SDS011;66633;47.628;19.158;2023-03-14T15:00:22;4.82;;;1.50;;
77520;SDS011;66633;47.628;19.158;2023-03-14T15:03:21;6.32;;;1.60;;
77520;SDS011;66633;47.628;19.158;2023-03-14T15:05:39;32.92;;;13.20;;
77520;SDS011;66633;47.628;19.158;2023-03-14T15:08:09;38.05;;;21.77;;
77520;SDS011;66633;47.628;19.158;2023-03-14T15:10:34;22.15;;;15.82;;
77520;SDS011;66633;47.628;19.158;2023-03-14T15:13:00;14.53;;;6.07;;
77520;SDS011;66633;47.628;19.158;2023-03-14T15:15:25;11.52;;;5.78;;
77520;SDS011;66633;47.628;19.158;2023-03-14T15:17:50;16.90;;;12.15;;
77520;SDS011;66633;47.628;19.158;2023-03-14T15:20:16;39.67;;;18.85;;
77520;SDS011;66633;47.628;19.158;2023-03-14T15:22:43;55.15;;;25.25;;
77520;SDS011;66633;47.628;19.158;2023-03-14T15:25:08;69.10;;;30.92;;
77520;SDS011;66633;47.628;19.158;2023-03-14T15:27:35;76.82;;;33.25;;
77520;SDS011;66633;47.628;19.158;2023-03-14T15:30:00;54.72;;;19.58;;
77520;SDS011;66633;47.628;19.158;2023-03-14T15:32:26;35.92;;;19.83;;
77520;SDS011;66633;47.628;19.158;2023-03-14T15:34:52;13.73;;;6.55;;
77520;SDS011;66633;47.628;19.158;2023-03-14T15:37:19;14.93;;;7.68;;
77520;SDS011;66633;47.628;19.158;2023-03-14T15:39:44;10.00;;;4.60;;
77520;SDS011;66633;47.628;19.158;2023-03-14T15:42:10;7.72;;;3.53;;
77520;SDS011;66633;47.628;19.158;2023-03-14T15:44:35;8.30;;;3.97;;
77520;SDS011;66633;47.628;19.158;2023-03-14T15:47:00;7.95;;;3.20;;
77520;SDS011;66633;47.628;19.158;2023-03-14T15:49:26;11.05;;;3.80;;